Arpin, Wisconsin
Current Conditions -  °F | °C
As of 12:54 PM on Friday 24 Oct 2014 (Local Time) from KMFI Reporting Station
Overcast Overcast  
Wind Chill: 50°   Ceiling: 300
Heat Index: 50°   Visibility: 9mi
Dew Point: 49°   Wind: 8mph
Humidity: 96%   Direction: 170°S
Pressure: 29.94"   Gusts: NA
Location:  44.54°N, 90.04°W
Report Text: KMFI 241754Z AUTO 17007KT 9SM OVC003 10/09 A2994 RMK AO2 SLP146 T01000094 10100 20072 58018
Loading
Personal Weather Stations






























Interactive Weather Map New forecast layout! Learn more

10-Day Weather Forecast

Advertisements
Track Severe Weather on mobile